Bergenline, New Jersey
Current Conditions -  °F | °C
As of 2:51 AM on Monday 26 Jan 2015 (Local Time) from KNYC Reporting Station
Overcast Overcast  
Wind Chill: 16°   Ceiling: 5000
Heat Index: 26°   Visibility: 10mi
Dew Point:   Wind: 12mph
Humidity: 37%   Direction: 50°NE
Pressure: 30.03"   Gusts: NA
Location:  40.7693°N, 74.0322°W
Report Text: KNYC 260751Z AUTO 05010KT 360V070 10SM OVC050 M03/M16 A3003 RMK AO2 SLP162 T10331161
Loading
Personal Weather Stations






























Interactive Weather Map New forecast layout! Learn more

10-Day Weather Forecast

Advertisements
Track Severe Weather on mobile